Alida, Minnesota
Current Conditions -  °F | °C
As of 6:32 AM on Sunday 23 Nov 2014 (Local Time) from KBJI Reporting Station
Light Snow Light Snow  
Wind Chill:   Ceiling: 300
Heat Index:   Visibility: 0.5mi
Dew Point:   Wind: 0mph
Humidity: 100%   Direction: NA
Pressure: 29.36"   Gusts: NA
Location:  47.4609°N, 95.2384°W
Report Text: KBJI 231232Z AUTO 00000KT 1/2SM -SN OVC003 00/00 A2936 RMK AO2 T00020002
Loading
Personal Weather Stations






























Interactive Weather Map New forecast layout! Learn more

10-Day Weather Forecast

Advertisements
Track Severe Weather on mobile